Terminal Aerodrome Forecast
Issued by NWS

Home | Current Version | Previous Version | Text Only | Print | Product List | Glossary On
Versions: 1 2 3 4 5 6 7 8 9 10 11 12 13 14 15 16
000
FTUS43 KAPX 182300 RRA
TAFAPN
TAF
KAPN 182341Z 1900/1924 32010G16KT P6SM SCT040 SCT100
     FM190200 33004KT P6SM SKC
     FM191400 10010KT P6SM SCT100 BKN200=

USA.gov is the U.S. government's official web portal to all federal, state and local government web resources and services.